Time;durP1;ratioP1;P1;durP2;ratioP2;P2;SDS_P1;SDS_P2;PMS_P1;PMS_P2;Temp;Humidity;BMP_temperature;BMP_pressure;BME280_temperature;BME280_humidity;BME280_pressure;Samples;Min_cycle;Max_cycle;Signal;HPM_P1;HPM_P2
2022/05/03 00:02:14;;;;;;;10.97;5.90;;;;;;;16.63;47.49;100250.03;5401265;32;35695;-91
2022/05/03 00:05:29;;;;;;;10.87;5.67;;;;;;;16.92;46.77;100249.91;5398566;32;45564;-91
2022/05/03 00:08:43;;;;;;;13.05;6.25;;;;;;;16.88;46.87;100243.13;5400747;32;35658;-90
2022/05/03 00:12:00;;;;;;;10.33;5.70;;;;;;;16.45;48.64;100244.13;5375336;32;45230;-92
2022/05/03 00:15:04;;;;;;;11.83;5.33;;;;;;;16.22;49.15;100245.62;5371253;32;36513;-90
2022/05/03 00:18:07;;;;;;;8.33;5.33;;;;;;;15.94;49.63;100238.59;5365114;32;32955;-92
2022/05/03 00:21:10;;;;;;;;;;;;;;;15.82;50.07;100243.81;5392202;32;44505;-92
2022/05/03 00:24:12;;;;;;;11.53;5.47;;;;;;;16.06;49.54;100244.91;5392761;32;34413;-92
2022/05/03 00:27:16;;;;;;;10.85;5.72;;;;;;;15.79;50.09;100244.88;5374457;32;36578;-92
2022/05/03 00:30:18;;;;;;;;;;;;;;;16.60;47.28;100242.25;5379848;32;34462;-91
2022/05/03 00:33:20;;;;;;;9.33;5.40;;;;;;;16.48;47.58;100237.75;5390911;32;33891;-90
2022/05/03 00:36:30;;;;;;;9.33;5.53;;;;;;;16.33;48.24;100238.78;5387954;32;35064;-89
2022/05/03 00:39:33;;;;;;;9.80;5.20;;;;;;;16.69;47.55;100232.84;5358191;32;34823;-90
2022/05/03 00:42:53;;;;;;;11.45;5.97;;;;;;;16.02;49.36;100238.09;5380881;32;33867;-91
2022/05/03 00:46:03;;;;;;;10.77;5.32;;;;;;;16.25;49.16;100237.47;5382742;32;35642;-92
2022/05/03 00:49:15;;;;;;;10.17;5.50;;;;;;;16.84;47.83;100241.63;5374617;32;33545;-91
2022/05/03 00:52:27;;;;;;;11.50;6.20;;;;;;;16.95;47.45;100233.78;5385838;32;44790;-90
2022/05/03 00:55:44;;;;;;;9.88;5.40;;;;;;;16.14;49.47;100232.00;5385604;32;33755;-93
2022/05/03 00:58:59;;;;;;;13.87;6.40;;;;;;;16.18;49.63;100233.53;5374698;32;44179;-89
2022/05/03 01:02:06;;;;;;;12.07;6.00;;;;;;;15.74;51.22;100230.22;5403693;32;34625;-91
2022/05/03 01:05:10;;;;;;;12.13;6.17;;;;;;;16.48;49.19;100221.84;5374744;32;36247;-89
2022/05/03 01:08:26;;;;;;;12.63;6.50;;;;;;;16.84;48.14;100221.22;5391486;32;44470;-92
2022/05/03 01:11:46;;;;;;;10.80;6.03;;;;;;;16.28;50.01;100231.13;5372500;32;34573;-90
2022/05/03 01:15:19;;;;;;;10.50;6.17;;;;;;;15.74;51.29;100228.41;5336855;32;44466;-92
2022/05/03 01:18:27;;;;;;;11.95;6.10;;;;;;;15.37;52.81;100229.81;5380617;32;34191;-91
2022/05/03 01:22:09;;;;;;;12.70;6.03;;;;;;;15.65;51.95;100232.50;5361075;32;36124;-92
2022/05/03 01:25:26;;;;;;;10.83;6.47;;;;;;;16.93;48.56;100230.37;5390910;32;33941;-92
2022/05/03 01:28:31;;;;;;;10.83;6.50;;;;;;;16.01;50.91;100230.25;5404257;32;34869;-92
2022/05/03 01:31:34;;;;;;;17.90;7.30;;;;;;;16.44;50.10;100233.63;5373055;32;34383;-91
2022/05/03 01:34:38;;;;;;;10.93;6.50;;;;;;;16.08;50.79;100231.56;5384252;32;34266;-90
2022/05/03 01:37:49;;;;;;;12.05;6.57;;;;;;;15.82;51.88;100233.22;5370211;32;44358;-89
2022/05/03 01:41:19;;;;;;;15.13;6.73;;;;;;;16.53;49.98;100228.56;5406509;32;34429;-89
2022/05/03 01:44:27;;;;;;;12.47;6.43;;;;;;;15.76;52.44;100234.44;5401695;32;35892;-90
2022/05/03 01:47:47;;;;;;;12.00;7.00;;;;;;;16.24;50.72;100227.84;5386099;32;34116;-91
2022/05/03 01:51:00;;;;;;;11.47;6.73;;;;;;;15.02;54.77;100231.97;5396142;32;35511;-90
2022/05/03 01:54:30;;;;;;;11.23;6.67;;;;;;;14.74;55.69;100238.84;5374895;32;33709;-92
2022/05/03 01:57:33;;;;;;;14.23;6.80;;;;;;;15.67;52.72;100233.25;5361223;32;34171;-92
2022/05/03 02:00:36;;;;;;;16.17;7.30;;;;;;;16.41;50.51;100232.00;5396688;32;34213;-91
2022/05/03 02:03:49;;;;;;;13.23;6.60;;;;;;;16.36;50.74;100233.25;5374974;32;36174;-91
2022/05/03 02:07:31;;;;;;;13.15;6.47;;;;;;;16.42;49.89;100231.09;5389514;32;34065;-91
2022/05/03 02:10:49;;;;;;;11.50;6.70;;;;;;;15.08;54.93;100240.37;5371027;32;35882;-90
2022/05/03 02:17:44;;;;;;;10.77;6.07;;;;;;;15.21;55.41;100234.34;5393804;32;34112;-90
2022/05/03 02:20:53;;;;;;;10.27;6.57;;;;;;;16.09;51.33;100234.09;5374456;32;44217;-90
2022/05/03 02:24:14;;;;;;;12.97;6.67;;;;;;;15.73;52.13;100236.47;5374046;32;35035;-89
2022/05/03 02:27:18;;;;;;;11.83;6.83;;;;;;;14.96;56.30;100242.91;5388554;32;43166;-92
2022/05/03 02:30:21;;;;;;;11.73;6.47;;;;;;;15.12;55.34;100241.03;5385509;32;34019;-90
2022/05/03 02:33:27;;;;;;;11.90;6.45;;;;;;;16.02;52.58;100237.25;5397130;32;35412;-90
2022/05/03 02:36:32;;;;;;;11.83;6.43;;;;;;;16.51;50.18;100233.13;5375637;32;35215;-93
2022/05/03 02:39:38;;;;;;;13.10;6.87;;;;;;;15.23;54.20;100241.25;5371180;32;34261;-91
2022/05/03 02:42:42;;;;;;;12.57;7.47;;;;;;;15.12;55.90;100241.03;5404717;32;44468;-92
2022/05/03 02:45:50;;;;;;;11.10;6.78;;;;;;;15.15;57.78;100236.41;5379694;32;35122;-91
2022/05/03 02:49:02;;;;;;;12.53;6.40;;;;;;;15.50;56.86;100224.59;5393045;32;34100;-91
2022/05/03 02:52:10;;;;;;;11.47;6.77;;;;;;;15.99;53.26;100233.00;5375974;32;38419;-90
2022/05/03 02:55:20;;;;;;;11.67;7.07;;;;;;;16.02;52.71;100238.09;5360840;32;43157;-90
2022/05/03 02:58:50;;;;;;;11.90;6.93;;;;;;;15.98;52.99;100232.16;5389896;32;33350;-89
2022/05/03 03:02:13;;;;;;;12.77;6.67;;;;;;;16.07;53.13;100232.50;5383679;32;34659;-93
2022/05/03 03:05:19;;;;;;;11.93;6.50;;;;;;;16.42;50.89;100224.91;5381956;32;43513;-91
2022/05/03 03:08:22;;;;;;;12.03;6.93;;;;;;;16.21;50.93;100227.16;5381662;32;34593;-92
2022/05/03 03:11:33;;;;;;;12.80;7.33;;;;;;;15.73;53.49;100229.38;5363689;32;34752;-92
2022/05/03 03:14:39;;;;;;;11.93;7.05;;;;;;;15.07;56.42;100238.69;5388982;32;35848;-89
2022/05/03 03:17:44;;;;;;;13.73;7.13;;;;;;;14.69;58.06;100233.00;5361461;32;44283;-89
2022/05/03 03:20:54;;;;;;;12.00;6.93;;;;;;;14.75;59.43;100242.34;5387600;32;33982;-91
2022/05/03 03:23:59;;;;;;;15.10;7.43;;;;;;;14.90;58.45;100231.75;5387811;32;33335;-90
2022/05/03 03:27:02;;;;;;;12.23;6.93;;;;;;;15.54;55.85;100229.63;5390836;32;34065;-89
2022/05/03 03:30:10;;;;;;;11.73;6.70;;;;;;;15.98;53.11;100233.97;5379726;32;36999;-89
2022/05/03 03:33:13;;;;;;;11.70;6.70;;;;;;;16.13;52.38;100237.41;5382850;32;44218;-90
2022/05/03 03:36:16;;;;;;;12.23;6.85;;;;;;;15.79;53.48;100236.06;5398996;32;34076;-89
2022/05/03 03:39:19;;;;;;;11.20;6.87;;;;;;;14.49;57.69;100236.81;5357175;32;33174;-89
2022/05/03 03:42:21;;;;;;;13.45;7.80;;;;;;;14.21;59.45;100242.78;5382343;32;34763;-92
2022/05/03 03:45:24;;;;;;;12.65;7.50;;;;;;;14.30;60.43;100247.56;5378776;32;35348;-91
2022/05/03 03:48:27;;;;;;;15.32;7.00;;;;;;;15.48;55.35;100245.91;5389196;32;34034;-90
2022/05/03 03:51:29;;;;;;;26.80;8.73;;;;;;;14.80;56.66;100254.37;5392930;32;35242;-90
2022/05/03 03:54:32;;;;;;;15.20;8.00;;;;;;;14.43;58.93;100266.22;5390142;32;34331;-90
2022/05/03 03:57:36;;;;;;;12.85;7.80;;;;;;;14.22;60.65;100267.41;5382524;32;34081;-91
2022/05/03 04:00:38;;;;;;;14.17;8.13;;;;;;;14.76;58.26;100265.25;5394796;32;37073;-90
2022/05/03 04:03:42;;;;;;;13.30;7.95;;;;;;;15.23;57.31;100274.81;5388248;32;42610;-91
2022/05/03 04:06:45;;;;;;;18.23;11.10;;;;;;;14.99;57.89;100277.97;5379358;32;38288;-90
2022/05/03 04:09:48;;;;;;;14.50;8.20;;;;;;;15.60;55.76;100268.97;5383095;32;33992;-93
2022/05/03 04:12:51;;;;;;;17.03;8.77;;;;;;;15.65;54.93;100266.94;5406203;32;33418;-93
2022/05/03 04:15:54;;;;;;;15.20;7.87;;;;;;;15.77;54.66;100264.44;5379837;32;33404;-91
2022/05/03 04:18:56;;;;;;;17.30;8.18;;;;;;;14.59;58.07;100276.78;5387634;32;35370;-92
2022/05/03 04:22:12;;;;;;;15.80;8.20;;;;;;;14.22;60.08;100267.41;5398533;32;37559;-91
2022/05/03 04:25:15;;;;;;;18.50;8.37;;;;;;;15.81;54.76;100260.66;5394209;32;42859;-93
2022/05/03 04:28:17;;;;;;;17.87;8.23;;;;;;;15.55;55.13;100272.84;5393748;32;35099;-92
2022/05/03 04:31:24;;;;;;;15.67;7.33;;;;;;;15.92;54.12;100268.81;5372833;32;34086;-92
2022/05/03 04:34:28;;;;;;;16.80;9.00;;;;;;;15.75;53.99;100272.50;5394717;32;35377;-91
2022/05/03 04:37:30;;;;;;;;;;;;;;;16.01;53.43;100273.50;5382307;32;34011;-91
2022/05/03 04:40:32;;;;;;;20.97;8.37;;;;;;;15.51;55.22;100272.19;5408594;32;33381;-93
2022/05/03 04:43:35;;;;;;;23.58;7.95;;;;;;;16.60;52.79;100275.91;5395120;32;35930;-93
2022/05/03 04:46:38;;;;;;;15.38;7.15;;;;;;;16.97;51.44;100269.03;5372152;32;34113;-90
2022/05/03 04:49:41;;;;;;;22.80;9.40;;;;;;;17.12;50.95;100272.44;5387462;32;45908;-90
2022/05/03 04:52:43;;;;;;;12.77;7.90;;;;;;;17.01;50.94;100270.53;5373204;32;33600;-89
2022/05/03 04:55:46;;;;;;;21.62;8.25;;;;;;;17.37;50.17;100282.25;5396005;32;35518;-92
2022/05/03 04:58:50;;;;;;;14.35;7.55;;;;;;;17.16;50.37;100284.56;5372968;32;34831;-91
2022/05/03 05:01:52;;;;;;;16.25;8.23;;;;;;;16.93;50.58;100278.16;5397031;32;35048;-93
2022/05/03 05:04:55;;;;;;;15.63;8.23;;;;;;;17.82;47.75;100276.41;5414483;32;37182;-90
2022/05/03 05:08:04;;;;;;;;;;;;;;;17.17;49.66;100281.81;5381538;32;36367;-89
2022/05/03 05:11:07;;;;;;;13.73;8.02;;;;;;;18.64;46.20;100280.19;5423091;32;33285;-90
2022/05/03 05:14:10;;;;;;;24.45;8.43;;;;;;;18.46;45.69;100270.06;5368630;32;43837;-91
2022/05/03 05:17:13;;;;;;;15.10;7.68;;;;;;;19.12;43.58;100253.50;5404550;32;34804;-90
2022/05/03 05:20:15;;;;;;;18.55;8.23;;;;;;;18.77;45.25;100269.50;5405649;32;35418;-93
2022/05/03 05:23:18;;;;;;;20.15;9.55;;;;;;;19.17;44.12;100269.16;5395616;32;34455;-92
2022/05/03 05:26:22;;;;;;;16.15;8.73;;;;;;;19.55;43.20;100276.84;5385253;32;34713;-92
2022/05/03 05:29:25;;;;;;;14.13;8.10;;;;;;;19.35;43.38;100262.41;5367404;32;33916;-93
2022/05/03 05:32:28;;;;;;;14.57;8.07;;;;;;;20.54;40.64;100266.25;5384909;32;37320;-89
2022/05/03 05:35:31;;;;;;;;;;;;;;;20.25;41.00;100263.25;5363145;32;35809;-90
2022/05/03 05:38:34;;;;;;;;;;;;;;;21.15;39.55;100267.41;5388810;32;37368;-94
2022/05/03 05:41:36;;;;;;;14.52;7.85;;;;;;;20.84;39.63;100267.31;5378445;32;34486;-89
2022/05/03 05:44:39;;;;;;;15.27;7.80;;;;;;;21.17;39.51;100266.28;5368253;32;34400;-89
2022/05/03 05:47:42;;;;;;;14.32;8.35;;;;;;;21.37;38.70;100268.13;5387868;32;44763;-90
2022/05/03 05:50:45;;;;;;;19.25;8.73;;;;;;;21.94;37.10;100265.03;5367074;32;36466;-93
2022/05/03 05:53:48;;;;;;;12.60;7.60;;;;;;;21.14;38.67;100268.41;5369695;32;35614;-91
2022/05/03 05:56:50;;;;;;;11.18;7.75;;;;;;;21.57;37.68;100274.44;5349362;32;34080;-93
2022/05/03 05:59:53;;;;;;;15.38;9.05;;;;;;;23.40;34.14;100258.78;5381696;32;33269;-91
2022/05/03 06:02:56;;;;;;;16.60;8.70;;;;;;;20.40;40.29;100276.31;5376254;32;36837;-96
2022/05/03 06:06:01;;;;;;;12.88;7.62;;;;;;;21.73;37.75;100267.75;5365154;32;34148;-94
2022/05/03 06:09:06;;;;;;;14.57;8.80;;;;;;;21.97;37.01;100254.06;5392213;32;35098;-96
2022/05/03 06:12:11;;;;;;;17.87;9.50;;;;;;;22.59;35.51;100261.78;5393447;32;44314;-95
2022/05/03 06:15:14;;;;;;;20.77;9.60;;;;;;;21.93;36.63;100268.69;5386199;32;33462;-95
2022/05/03 06:18:17;;;;;;;17.70;10.00;;;;;;;21.47;37.87;100264.69;5371779;32;35054;-91
2022/05/03 06:21:22;;;;;;;16.98;10.15;;;;;;;23.17;34.59;100247.53;5407495;32;35226;-92
2022/05/03 06:24:24;;;;;;;17.08;11.05;;;;;;;25.47;30.85;100266.06;5382912;32;34953;-93
2022/05/03 06:27:27;;;;;;;12.77;7.40;;;;;;;22.61;34.80;100265.19;5392413;32;33758;-93
2022/05/03 06:30:31;;;;;;;14.63;8.10;;;;;;;22.58;34.00;100268.13;5383789;32;35516;-94
2022/05/03 06:33:34;;;;;;;13.25;8.20;;;;;;;23.19;33.52;100267.03;5395112;32;36488;-95
2022/05/03 06:36:45;;;;;;;14.15;6.95;;;;;;;23.71;31.96;100271.00;5375216;32;43702;-91
2022/05/03 06:39:48;;;;;;;11.50;7.65;;;;;;;22.02;34.69;100275.88;5373780;32;33949;-91
2022/05/03 06:42:50;;;;;;;14.15;8.77;;;;;;;25.84;28.64;100257.72;5390931;32;35066;-91
2022/05/03 06:45:55;;;;;;;13.65;8.23;;;;;;;26.54;27.44;100255.59;5389204;32;35367;-90
2022/05/03 06:48:58;;;;;;;11.27;5.93;;;;;;;24.58;29.89;100267.84;5381034;32;35869;-93
2022/05/03 06:52:02;;;;;;;8.23;5.85;;;;;;;25.14;28.80;100265.00;5393182;32;33416;-93
2022/05/03 06:55:05;;;;;;;8.70;5.97;;;;;;;23.74;30.92;100256.44;5394654;32;35479;-95
2022/05/03 06:58:10;;;;;;;13.43;6.95;;;;;;;23.76;31.10;100266.06;5391143;32;34199;-91
2022/05/03 07:01:14;;;;;;;13.60;6.72;;;;;;;23.82;31.00;100266.44;5383347;32;44938;-92
2022/05/03 07:04:17;;;;;;;10.25;6.60;;;;;;;27.50;25.38;100258.47;5403820;32;37516;-92
2022/05/03 07:07:19;;;;;;;16.35;6.53;;;;;;;25.20;28.27;100265.22;5395597;32;34699;-90
2022/05/03 07:10:22;;;;;;;9.02;5.40;;;;;;;24.67;29.32;100263.41;5407944;32;32944;-90
2022/05/03 07:13:26;;;;;;;10.95;5.82;;;;;;;27.93;23.86;100259.00;5415641;32;36834;-94
2022/05/03 07:16:29;;;;;;;8.13;5.03;;;;;;;28.18;23.46;100256.19;5400483;32;34190;-92
2022/05/03 07:22:57;;;;;;;11.25;5.37;;;;;;;24.96;28.30;100267.69;5383936;32;35422;-92
2022/05/03 07:25:59;;;;;;;9.60;5.45;;;;;;;25.52;27.64;100263.75;5376781;32;213423;-90
2022/05/03 07:29:03;;;;;;;11.05;5.43;;;;;;;25.20;27.98;100269.75;5395692;32;34268;-93
2022/05/03 07:32:06;;;;;;;11.98;5.00;;;;;;;25.97;26.72;100257.28;5379931;32;33948;-93
2022/05/03 07:35:09;;;;;;;9.20;5.78;;;;;;;25.88;27.14;100259.91;5387746;32;34292;-92
2022/05/03 07:38:12;;;;;;;9.40;5.20;;;;;;;26.33;26.00;100257.87;5382020;32;45207;-94
2022/05/03 07:41:15;;;;;;;7.22;3.85;;;;;;;26.66;24.99;100253.41;5386249;32;35252;-94
2022/05/03 07:44:18;;;;;;;11.45;3.83;;;;;;;29.62;21.07;100256.25;5406730;32;34353;-91
2022/05/03 07:47:20;;;;;;;6.05;3.05;;;;;;;28.10;22.60;100254.37;5397333;32;34819;-94
2022/05/03 07:50:23;;;;;;;7.15;3.20;;;;;;;28.23;22.04;100251.94;5386195;32;32707;-90
2022/05/03 07:53:27;;;;;;;8.15;3.40;;;;;;;27.96;22.13;100253.25;5392751;32;34977;-93
2022/05/03 07:56:30;;;;;;;4.93;3.10;;;;;;;28.44;21.84;100251.34;5372475;32;35598;-90
2022/05/03 07:59:33;;;;;;;6.18;3.03;;;;;;;30.13;20.22;100226.53;5381576;32;35652;-93
2022/05/03 08:02:35;;;;;;;8.88;2.97;;;;;;;29.50;20.57;100253.16;5388253;32;34366;-91
2022/05/03 08:05:38;;;;;;;5.82;2.90;;;;;;;27.55;22.62;100255.22;5406571;32;33691;-95
2022/05/03 08:08:41;;;;;;;9.15;3.80;;;;;;;27.18;24.07;100253.13;5386997;32;44289;-89
2022/05/03 08:11:44;;;;;;;5.95;3.67;;;;;;;28.49;22.18;100240.81;5389317;32;37070;-94
2022/05/03 08:14:49;;;;;;;8.60;3.55;;;;;;;28.10;22.60;100248.13;5356186;32;34020;-91
2022/05/03 08:17:55;;;;;;;9.20;4.15;;;;;;;26.88;24.26;100260.84;5387246;32;35110;-92
2022/05/03 08:20:57;;;;;;;11.95;3.92;;;;;;;26.99;24.24;100255.13;5380210;32;35898;-90
2022/05/03 08:24:00;;;;;;;9.38;4.50;;;;;;;28.75;22.12;100248.59;5382477;32;34066;-90
2022/05/03 08:27:03;;;;;;;9.73;4.20;;;;;;;29.03;21.42;100248.03;5393668;32;34177;-90
2022/05/03 08:30:09;;;;;;;9.40;4.70;;;;;;;27.35;23.53;100257.47;5371518;32;33968;-93
2022/05/03 08:33:12;;;;;;;7.50;3.72;;;;;;;27.61;23.51;100242.88;5406544;32;45335;-95
2022/05/03 08:36:15;;;;;;;6.70;4.07;;;;;;;27.89;22.89;100251.44;5382722;32;34589;-94
2022/05/03 08:42:39;;;;;;;12.93;4.05;;;;;;;27.86;23.07;100238.28;5393826;32;34613;-95
2022/05/03 08:45:46;;;;;;;12.60;4.03;;;;;;;27.79;23.10;100235.44;5397544;32;43500;-96
2022/05/03 08:48:55;;;;;;;9.90;4.50;;;;;;;27.60;23.22;100247.44;5423433;32;33883;-93
2022/05/03 08:52:03;;;;;;;12.80;4.15;;;;;;;27.44;23.04;100248.34;5439108;32;33461;-96
2022/05/03 08:55:06;;;;;;;7.22;3.80;;;;;;;30.01;20.16;100244.25;5426235;32;33992;-93
2022/05/03 08:58:08;;;;;;;8.52;3.70;;;;;;;29.59;20.32;100241.22;5403619;32;34699;-94
2022/05/03 09:01:12;;;;;;;8.10;3.62;;;;;;;30.29;19.59;100236.31;5401882;32;43499;-95
2022/05/03 09:04:14;;;;;;;8.23;3.30;;;;;;;30.16;19.97;100237.00;5404177;32;34040;-92
2022/05/03 09:07:19;;;;;;;5.28;3.10;;;;;;;31.20;18.41;100235.50;5396638;32;35707;-94
2022/05/03 09:10:28;;;;;;;7.00;3.20;;;;;;;30.76;18.73;100237.66;5405530;32;33672;-91
2022/05/03 09:13:32;;;;;;;7.43;3.15;;;;;;;29.53;20.44;100244.69;5383606;32;34093;-93
2022/05/03 09:16:46;;;;;;;7.78;3.10;;;;;;;29.42;19.53;100239.69;5364795;32;32885;-92
2022/05/03 09:19:51;;;;;;;5.28;3.30;;;;;;;29.61;19.74;100232.91;5393668;32;34008;-91
2022/05/03 09:26:21;;;;;;;7.85;3.40;;;;;;;29.63;19.92;100215.47;5385838;32;42967;-92
2022/05/03 09:29:24;;;;;;;10.35;3.65;;;;;;;30.66;18.99;100217.09;5393042;32;33700;-91
2022/05/03 09:32:42;;;;;;;8.10;3.60;;;;;;;30.06;19.54;100215.56;5378525;32;34733;-94
2022/05/03 09:35:47;;;;;;;8.52;4.00;;;;;;;31.80;17.30;100212.31;5386416;32;43621;-93
2022/05/03 09:38:51;;;;;;;9.95;3.10;;;;;;;32.10;17.12;100213.87;5372440;32;33800;-93
2022/05/03 09:42:07;;;;;;;5.50;2.70;;;;;;;30.29;18.76;100222.75;5392940;32;34823;-91
2022/05/03 09:45:12;;;;;;;6.55;3.37;;;;;;;31.38;17.79;100215.19;5383597;32;43869;-94
2022/05/03 09:48:14;;;;;;;5.62;3.05;;;;;;;34.21;14.97;100207.47;5392757;32;33792;-91
2022/05/03 09:51:16;;;;;;;6.85;2.92;;;;;;;33.56;15.03;100207.50;5392509;32;34673;-90
2022/05/03 09:54:19;;;;;;;4.03;2.83;;;;;;;31.50;17.23;100208.16;5401885;32;34035;-93
2022/05/03 09:57:24;;;;;;;8.13;3.22;;;;;;;32.92;15.81;100207.38;5403279;32;32606;-94
2022/05/03 10:00:27;;;;;;;6.35;3.55;;;;;;;31.31;17.17;100200.75;5405116;32;34539;-93
2022/05/03 10:03:30;;;;;;;10.50;3.15;;;;;;;31.93;16.42;100197.09;5416070;32;34333;-90
2022/05/03 10:06:33;;;;;;;7.40;3.03;;;;;;;34.43;14.07;100184.25;5417559;32;35106;-93
2022/05/03 10:09:36;;;;;;;8.60;3.47;;;;;;;31.86;15.76;100185.38;5396635;32;34304;-92
2022/05/03 10:12:40;;;;;;;6.53;2.78;;;;;;;33.94;13.16;100172.16;5401171;32;35613;-92
2022/05/03 10:22:31;;;;;;;5.35;2.80;;;;;;;36.45;10.88;100172.63;5398120;32;34277;-91
2022/05/03 10:25:43;;;;;;;6.30;3.12;;;;;;;33.55;12.61;100178.56;5405711;32;33597;-92
2022/05/03 10:29:01;;;;;;;3.47;2.87;;;;;;;31.48;14.52;100180.34;5390064;32;44238;-90
2022/05/03 10:32:07;;;;;;;6.20;2.80;;;;;;;29.61;16.05;100176.88;5388015;32;34427;-93
2022/05/03 10:35:36;;;;;;;6.53;2.65;;;;;;;31.91;14.69;100180.16;5400852;32;44609;-89
2022/05/03 10:38:46;;;;;;;4.45;3.00;;;;;;;33.49;13.12;100170.41;5370006;32;34476;-90
2022/05/03 10:41:59;;;;;;;5.47;3.00;;;;;;;32.17;14.49;100163.94;5397495;32;44363;-93
2022/05/03 10:45:10;;;;;;;7.07;3.00;;;;;;;31.56;15.29;100163.91;5384408;32;36404;-92
2022/05/03 10:48:26;;;;;;;7.47;2.85;;;;;;;34.74;12.72;100155.25;5391944;32;44523;-91
2022/05/03 10:51:29;;;;;;;8.35;2.85;;;;;;;32.62;15.76;100166.94;5382064;32;33966;-93
2022/05/03 10:55:08;;;;;;;9.27;3.30;;;;;;;30.68;17.72;100159.97;5386780;32;34773;-92
2022/05/03 10:58:20;;;;;;;8.75;3.92;;;;;;;27.60;21.53;100173.72;5412937;32;35288;-96
2022/05/03 11:01:24;;;;;;;18.80;3.50;;;;;;;27.95;20.90;100165.16;5406175;32;33756;-95
2022/05/03 11:04:29;;;;;;;8.90;3.20;;;;;;;25.25;24.88;100184.91;5394003;32;33006;-93
2022/05/03 11:07:35;;;;;;;6.75;2.83;;;;;;;24.41;26.11;100180.06;5395548;32;36597;-92
2022/05/03 11:10:46;;;;;;;5.93;2.95;;;;;;;24.39;26.00;100183.88;5400848;32;45918;-95
2022/05/03 11:13:49;;;;;;;9.43;3.03;;;;;;;24.64;24.87;100177.72;5399721;32;35258;-91
2022/05/03 11:17:04;;;;;;;4.20;2.90;;;;;;;23.73;25.92;100183.16;5381480;32;34026;-96
2022/05/03 11:20:10;;;;;;;13.93;3.10;;;;;;;22.97;26.44;100179.72;5395908;32;34374;-91
2022/05/03 11:23:13;;;;;;;5.53;2.85;;;;;;;22.95;27.22;100185.25;5393546;32;34539;-91
2022/05/03 11:26:20;;;;;;;6.82;3.28;;;;;;;23.15;27.33;100175.31;5393684;32;36450;-93
2022/05/03 11:29:32;;;;;;;6.07;3.33;;;;;;;23.96;26.46;100178.22;5399580;32;34481;-94
2022/05/03 11:32:42;;;;;;;10.98;3.45;;;;;;;23.30;27.82;100183.72;5398285;32;34292;-96
2022/05/03 11:35:47;;;;;;;5.35;3.17;;;;;;;22.73;28.69;100179.31;5393344;32;44552;-96
2022/05/03 11:38:55;;;;;;;5.25;3.25;;;;;;;23.58;27.39;100165.84;5411204;32;32975;-92
2022/05/03 11:41:59;;;;;;;9.68;3.35;;;;;;;23.24;28.26;100169.06;5395435;32;34925;-92
2022/05/03 11:45:04;;;;;;;4.93;2.62;;;;;;;23.81;27.12;100165.44;5379413;32;34125;-90
2022/05/03 11:48:08;;;;;;;7.25;2.60;;;;;;;24.48;25.24;100164.16;5394292;32;33123;-91
2022/05/03 11:58:01;;;;;;;8.27;2.80;;;;;;;24.69;25.41;100156.59;5402597;32;33882;-94
2022/05/03 12:01:15;;;;;;;4.90;2.35;;;;;;;27.37;21.02;100162.84;5365971;32;35318;-93
2022/05/03 12:04:20;;;;;;;7.07;2.55;;;;;;;26.94;21.08;100152.31;5370986;32;44331;-93
2022/05/03 12:07:25;;;;;;;5.15;2.40;;;;;;;26.10;22.00;100156.16;5382258;32;33151;-93
2022/05/03 12:10:37;;;;;;;6.70;2.75;;;;;;;25.39;22.63;100154.72;5374704;32;33553;-95
2022/05/03 12:13:40;;;;;;;7.10;2.50;;;;;;;26.13;21.16;100160.34;5359109;32;44419;-93
2022/05/03 12:16:50;;;;;;;5.95;2.40;;;;;;;26.67;20.63;100140.06;5380043;32;34231;-92
2022/05/03 12:20:00;;;;;;;4.15;2.42;;;;;;;25.38;22.31;100153.03;5382251;32;33639;-92
2022/05/03 12:23:17;;;;;;;5.37;2.40;;;;;;;26.32;21.02;100153.81;5372978;32;34525;-94
2022/05/03 12:26:21;;;;;;;4.95;2.75;;;;;;;25.91;21.55;100151.91;5396081;32;34295;-94
2022/05/03 12:29:26;;;;;;;4.72;2.53;;;;;;;26.48;21.05;100155.72;5398178;32;33406;-91
2022/05/03 12:32:33;;;;;;;4.90;2.40;;;;;;;27.65;19.79;100156.00;5412962;32;34211;-94
2022/05/03 12:35:37;;;;;;;5.60;2.95;;;;;;;27.88;19.07;100136.31;5405544;32;35334;-91
2022/05/03 12:38:48;;;;;;;4.55;2.67;;;;;;;27.71;20.37;100154.47;5379023;32;42907;-92
2022/05/03 12:42:02;;;;;;;6.50;2.70;;;;;;;27.25;21.04;100152.44;5405639;32;34018;-96
2022/05/03 12:45:10;;;;;;;9.50;3.15;;;;;;;25.76;23.34;100144.59;5408095;32;35049;-93
2022/05/03 12:48:14;;;;;;;10.85;3.20;;;;;;;25.72;23.67;100143.25;5400614;32;43161;-93
2022/05/03 12:51:16;;;;;;;7.03;2.95;;;;;;;25.99;23.18;100140.31;5393284;32;34222;-93
2022/05/03 12:54:22;;;;;;;4.68;2.72;;;;;;;25.71;23.07;100133.47;5402498;32;35817;-93
2022/05/03 13:00:45;;;;;;;9.50;3.20;;;;;;;26.15;22.55;100126.03;5390122;32;43329;-91
2022/05/03 13:03:50;;;;;;;6.68;2.92;;;;;;;25.70;22.42;100127.25;5410141;32;36084;-95
2022/05/03 13:06:58;;;;;;;7.12;2.80;;;;;;;25.64;22.27;100117.16;5394807;32;34463;-91
2022/05/03 13:10:00;;;;;;;6.22;2.90;;;;;;;25.43;23.12;100122.94;5399223;32;33273;-95
2022/05/03 13:13:06;;;;;;;6.35;2.72;;;;;;;25.76;22.73;100126.62;5381858;32;35596;-94
2022/05/03 13:16:08;;;;;;;4.60;2.87;;;;;;;24.04;26.80;100126.47;5373593;32;34501;-96
2022/05/03 13:19:15;;;;;;;4.12;2.78;;;;;;;24.39;26.76;100122.94;5404588;32;43069;-95
2022/05/03 13:22:17;;;;;;;9.52;3.10;;;;;;;25.44;24.72;100115.69;5418782;32;34441;-96
2022/05/03 13:25:25;;;;;;;6.78;3.37;;;;;;;24.92;25.10;100113.06;5412708;32;34395;-92
2022/05/03 13:28:29;;;;;;;5.40;3.05;;;;;;;24.56;25.12;100122.06;5404011;32;36246;-96
2022/05/03 13:31:32;;;;;;;6.25;2.97;;;;;;;24.58;24.45;100121.91;5401551;32;32907;-96
2022/05/03 13:34:35;;;;;;;7.57;3.17;;;;;;;25.39;22.98;100119.75;5396136;32;35348;-95
2022/05/03 13:41:08;;;;;;;8.05;4.53;;;;;;;25.46;22.65;100111.03;5409485;32;35561;-95
2022/05/03 13:44:11;;;;;;;7.87;3.10;;;;;;;25.17;23.16;100103.31;5381821;32;43323;-95
2022/05/03 13:47:18;;;;;;;7.68;2.80;;;;;;;25.14;23.22;100106.34;5399510;32;34533;-96
2022/05/03 13:50:22;;;;;;;4.70;2.80;;;;;;;25.84;23.46;100105.13;5414067;32;34081;-96
2022/05/03 13:53:38;;;;;;;6.15;3.15;;;;;;;25.76;23.48;100088.97;5388514;27;35771;-73
2022/05/03 13:56:41;;;;;;;6.18;2.97;;;;;;;25.21;24.14;100102.84;5386373;32;46849;-72
2022/05/03 13:59:46;;;;;;;5.05;2.78;;;;;;;25.07;24.29;100100.78;5369103;32;34678;-75
2022/05/03 14:02:49;;;;;;;7.90;3.22;;;;;;;25.09;23.51;100102.28;5376571;32;35030;-72
2022/05/03 14:05:52;;;;;;;4.53;3.03;;;;;;;25.03;24.00;100102.03;5376294;32;34177;-72
2022/05/03 14:08:55;;;;;;;5.78;3.40;;;;;;;25.67;22.32;100100.66;5374851;32;34040;-73
2022/05/03 14:11:58;;;;;;;5.05;2.83;;;;;;;24.91;23.35;100112.22;5376826;32;34077;-72
2022/05/03 14:15:00;;;;;;;5.47;3.08;;;;;;;25.13;23.21;100108.19;5366920;32;34242;-74
2022/05/03 14:18:03;;;;;;;6.05;2.97;;;;;;;24.21;24.14;100101.44;5389469;32;35595;-73
2022/05/03 14:21:06;;;;;;;7.07;3.33;;;;;;;25.22;22.73;100104.53;5379312;32;34200;-74
2022/05/03 14:24:08;;;;;;;;;;;;;;;24.05;27.69;100123.62;5388500;32;34110;-71
2022/05/03 14:27:11;;;;;;;6.53;3.27;;;;;;;24.26;28.56;100127.81;5388792;32;43313;-79
2022/05/03 14:30:13;;;;;;;;;;;;;;;24.28;28.48;100129.38;5378507;32;34217;-77
2022/05/03 14:33:15;;;;;;;5.72;3.00;;;;;;;23.92;29.08;100133.88;5385147;32;35531;-76
2022/05/03 14:36:17;;;;;;;;;;;;;;;23.40;29.17;100124.72;5382521;32;34832;-70
2022/05/03 14:39:20;;;;;;;4.80;3.00;;;;;;;24.10;27.54;100130.38;5395019;32;32166;-77
2022/05/03 14:42:38;;;;;;;4.32;2.62;;;;;;;23.95;27.97;100132.72;5378254;32;35270;-75
2022/05/03 14:45:40;;;;;;;6.85;2.85;;;;;;;23.53;28.18;100133.25;5387718;32;45110;-70
2022/05/03 14:48:42;;;;;;;5.82;3.03;;;;;;;22.32;30.62;100141.16;5390162;32;33701;-76
2022/05/03 14:51:45;;;;;;;6.07;3.12;;;;;;;22.36;31.23;100138.06;5374396;32;34631;-77
2022/05/03 14:54:48;;;;;;;7.47;2.80;;;;;;;22.93;30.33;100140.84;5398985;32;34015;-78
2022/05/03 15:04:33;;;;;;;7.07;2.67;;;;;;;23.50;28.43;100126.31;5392411;32;34594;-72
2022/05/03 15:07:35;;;;;;;6.53;2.90;;;;;;;23.00;29.42;100135.75;5376700;32;34183;-71